Middle Creek, Pennsylvania
Current Conditions -  °F | °C
As of 3:53 AM on Monday 22 Dec 2014 (Local Time) from KSEG Reporting Station
Haze Haze  
Wind Chill: 19°   Ceiling: Unl
Heat Index: 19°   Visibility: 5mi
Dew Point: 16°   Wind: 0mph
Humidity: 88%   Direction: NA
Pressure: 30.31"   Gusts: NA
Location:  40.817°N, 76.9715°W
Report Text: KSEG 220853Z AUTO 00000KT 5SM BR CLR M07/M09 A3031 RMK AO2 SLP271 I1000 I3000 T10721089 58002
Loading
Personal Weather Stations






























Interactive Weather Map New forecast layout! Learn more

10-Day Weather Forecast

Advertisements
Track Severe Weather on mobile